Time;durP1;ratioP1;P1;durP2;ratioP2;P2;SDS_P1;SDS_P2;PMS_P1;PMS_P2;Temp;Humidity;BMP_temperature;BMP_pressure;BME280_temperature;BME280_humidity;BME280_pressure;Samples;Min_cycle;Max_cycle;Signal;HPM_P1;HPM_P2
2024/01/15 00:01:46;;;;;;;2.90;1.60;;;19.70;42.30;;;;;;222699;1260;25284;-55
2024/01/15 00:06:51;;;;;;;2.70;1.50;;;19.60;42.20;;;;;;223421;1260;24236;-57
2024/01/15 00:11:57;;;;;;;4.60;1.80;;;19.50;42.00;;;;;;222478;1260;25571;-55
2024/01/15 00:17:01;;;;;;;2.40;1.50;;;19.60;42.00;;;;;;222584;1261;22629;-57
2024/01/15 00:22:05;;;;;;;4.40;1.80;;;19.40;42.20;;;;;;223031;1265;25482;-54
2024/01/15 00:27:10;;;;;;;3.90;2.00;;;19.30;42.50;;;;;;222514;1260;22533;-57
2024/01/15 00:32:14;;;;;;;3.00;1.80;;;19.30;42.40;;;;;;222845;1261;24193;-57
2024/01/15 00:37:19;;;;;;;4.20;1.90;;;19.30;42.50;;;;;;222564;1262;25390;-57
2024/01/15 00:42:23;;;;;;;3.10;1.50;;;19.20;42.60;;;;;;222461;1265;24177;-58
2024/01/15 00:47:28;;;;;;;2.60;1.60;;;19.20;42.50;;;;;;222494;1260;23267;-56
2024/01/15 00:52:32;;;;;;;1.80;1.30;;;19.10;42.60;;;;;;222727;1267;22804;-55
2024/01/15 00:57:37;;;;;;;2.10;1.40;;;19.00;42.70;;;;;;222578;1259;24475;-58
2024/01/15 01:02:42;;;;;;;3.10;1.40;;;19.10;42.80;;;;;;222562;1262;25324;-55
2024/01/15 01:07:46;;;;;;;2.20;1.10;;;19.70;41.60;;;;;;222340;1261;25271;-58
2024/01/15 01:12:52;;;;;;;2.00;1.40;;;20.30;40.80;;;;;;222632;1266;24321;-58
2024/01/15 01:17:56;;;;;;;1.40;1.30;;;20.60;40.30;;;;;;222478;1264;22626;-55
2024/01/15 01:23:00;;;;;;;2.30;1.30;;;20.60;40.30;;;;;;222807;1267;25613;-56
2024/01/15 01:28:05;;;;;;;2.30;1.60;;;20.60;40.40;;;;;;222428;1263;25406;-55
2024/01/15 01:33:09;;;;;;;2.70;1.70;;;20.40;40.50;;;;;;222506;1267;25250;-56
2024/01/15 01:38:14;;;;;;;2.60;1.70;;;20.30;40.80;;;;;;222828;1267;22527;-57
2024/01/15 01:43:18;;;;;;;3.40;1.60;;;20.00;41.30;;;;;;222438;1266;25312;-58
2024/01/15 01:48:25;;;;;;;1.80;1.40;;;19.80;41.70;;;;;;222643;1264;22529;-58
2024/01/15 01:53:33;;;;;;;1.80;1.70;;;19.60;41.90;;;;;;223194;1266;25280;-55
2024/01/15 01:58:37;;;;;;;3.20;1.50;;;19.60;42.00;;;;;;222930;1264;22539;-56
2024/01/15 02:03:43;;;;;;;7.70;2.20;;;19.60;42.30;;;;;;222944;1266;25223;-57
2024/01/15 02:08:47;;;;;;;2.80;1.60;;;19.50;42.00;;;;;;222872;1266;25396;-57
2024/01/15 02:13:52;;;;;;;2.10;1.80;;;19.50;42.10;;;;;;223002;1267;25281;-58
2024/01/15 02:18:56;;;;;;;2.60;1.80;;;19.30;42.20;;;;;;223050;1266;22898;-55
2024/01/15 02:24:01;;;;;;;1.60;1.50;;;19.30;42.40;;;;;;223376;1261;23923;-57
2024/01/15 02:29:08;;;;;;;2.80;1.80;;;19.30;42.40;;;;;;222728;1266;22571;-56
2024/01/15 02:34:13;;;;;;;2.60;1.40;;;19.20;42.40;;;;;;222556;1266;22518;-57
2024/01/15 02:39:20;;;;;;;3.90;1.80;;;19.10;42.40;;;;;;222513;1263;22514;-58
2024/01/15 02:44:25;;;;;;;2.10;1.80;;;19.00;42.60;;;;;;222223;1266;22518;-56
2024/01/15 02:49:29;;;;;;;2.20;1.40;;;19.00;42.70;;;;;;222230;1260;22598;-55
2024/01/15 02:54:34;;;;;;;1.40;1.30;;;19.00;42.70;;;;;;222945;1264;22638;-55
2024/01/15 02:59:39;;;;;;;1.70;1.20;;;19.00;43.10;;;;;;222731;1261;24190;-57
2024/01/15 03:04:44;;;;;;;3.90;1.80;;;19.50;41.90;;;;;;222590;1260;22529;-57
2024/01/15 03:09:48;;;;;;;3.70;1.90;;;20.10;40.90;;;;;;222600;1260;25281;-56
2024/01/15 03:15:03;;;;;;;3.00;1.50;;;20.50;40.50;;;;;;223012;1261;25272;-58
2024/01/15 03:20:09;;;;;;;2.00;1.30;;;20.70;40.10;;;;;;223108;1260;22923;-58
2024/01/15 03:25:14;;;;;;;3.30;1.70;;;20.60;40.10;;;;;;222799;1267;23897;-56
2024/01/15 03:30:19;;;;;;;2.60;1.50;;;20.40;40.40;;;;;;222543;1260;24225;-57
2024/01/15 03:35:23;;;;;;;1.20;1.00;;;20.30;40.60;;;;;;222524;1268;22678;-57
2024/01/15 03:40:27;;;;;;;3.00;1.60;;;20.10;41.00;;;;;;222512;1260;24246;-55
2024/01/15 03:45:32;;;;;;;2.70;1.30;;;19.80;41.50;;;;;;222615;1264;25329;-58
2024/01/15 03:50:37;;;;;;;3.80;1.60;;;19.80;41.70;;;;;;222779;1267;24075;-58
2024/01/15 03:55:42;;;;;;;2.50;1.50;;;19.70;41.80;;;;;;222342;1261;22813;-57
2024/01/15 04:00:47;;;;;;;2.60;1.60;;;19.50;41.80;;;;;;223332;1261;22818;-58
2024/01/15 04:05:52;;;;;;;2.70;1.60;;;19.50;41.90;;;;;;222511;1261;22517;-56
2024/01/15 04:10:56;;;;;;;1.50;1.30;;;19.50;42.10;;;;;;222418;1266;22596;-56
2024/01/15 04:16:01;;;;;;;1.90;1.50;;;19.30;42.30;;;;;;222613;1264;22528;-56
2024/01/15 04:21:06;;;;;;;1.50;1.20;;;19.30;42.90;;;;;;222854;1268;24213;-57
2024/01/15 04:26:10;;;;;;;1.70;1.30;;;19.20;42.30;;;;;;222724;1264;23937;-55
2024/01/15 04:31:26;;;;;;;7.00;1.80;;;19.20;42.30;;;;;;222678;1267;23396;-55
2024/01/15 04:36:31;;;;;;;4.90;1.80;;;19.10;42.40;;;;;;222772;1264;24251;-56
2024/01/15 04:41:36;;;;;;;3.10;1.70;;;19.10;42.30;;;;;;222783;1245;22523;-56
2024/01/15 04:46:40;;;;;;;2.00;1.50;;;18.90;42.50;;;;;;222388;1260;25009;-56
2024/01/15 04:51:45;;;;;;;4.20;1.60;;;19.00;42.70;;;;;;222634;1260;24202;-57
2024/01/15 04:56:50;;;;;;;1.40;1.30;;;19.00;42.50;;;;;;222744;1266;25284;-56
2024/01/15 05:01:55;;;;;;;3.50;1.60;;;19.00;42.50;;;;;;222879;1262;22650;-55
2024/01/15 05:06:59;;;;;;;3.00;1.50;;;19.40;41.80;;;;;;222742;1261;25312;-58
2024/01/15 05:12:04;;;;;;;2.20;1.40;;;20.10;40.90;;;;;;222721;1264;22520;-56
2024/01/15 05:17:08;;;;;;;1.90;1.60;;;20.50;40.20;;;;;;222665;1266;25402;-57
2024/01/15 05:22:14;;;;;;;1.90;1.10;;;20.60;40.00;;;;;;222193;1264;22723;-57
2024/01/15 05:27:19;;;;;;;3.60;1.70;;;20.50;40.10;;;;;;222521;1265;25401;-58
2024/01/15 05:32:24;;;;;;;2.80;1.20;;;20.30;40.30;;;;;;222646;1260;23803;-58
2024/01/15 05:37:28;;;;;;;1.80;1.30;;;20.20;40.50;;;;;;222737;1249;22635;-55
2024/01/15 05:42:32;;;;;;;3.80;1.70;;;19.90;41.20;;;;;;222655;1264;22633;-58
2024/01/15 05:47:37;;;;;;;1.80;1.10;;;19.70;42.00;;;;;;222604;1260;633484;-58
2024/01/15 05:52:41;;;;;;;2.50;1.30;;;19.60;41.70;;;;;;222947;1263;25344;-57
2024/01/15 05:57:46;;;;;;;3.30;1.60;;;19.40;41.80;;;;;;223116;1263;25236;-58
2024/01/15 06:02:51;;;;;;;1.80;1.10;;;19.40;41.90;;;;;;222669;1244;24096;-58
2024/01/15 06:07:55;;;;;;;2.20;1.40;;;19.30;41.80;;;;;;222755;1243;22623;-58
2024/01/15 06:13:02;;;;;;;6.40;2.20;;;19.20;42.00;;;;;;222923;1253;24249;-57
2024/01/15 06:18:07;;;;;;;2.50;1.60;;;19.20;41.90;;;;;;222285;1261;24099;-56
2024/01/15 06:23:12;;;;;;;2.60;1.40;;;19.10;41.90;;;;;;222899;1259;24378;-57
2024/01/15 06:28:16;;;;;;;1.80;1.10;;;19.10;42.30;;;;;;222476;1266;22520;-57
2024/01/15 06:33:28;;;;;;;2.80;1.50;;;19.10;42.40;;;;;;222695;1260;24311;-58
2024/01/15 06:38:33;;;;;;;2.20;1.20;;;19.10;42.10;;;;;;222724;1261;24363;-57
2024/01/15 06:43:37;;;;;;;4.00;1.60;;;19.10;42.10;;;;;;222959;1267;23918;-58
2024/01/15 06:48:42;;;;;;;2.80;1.50;;;19.10;42.10;;;;;;223038;1266;24344;-57
2024/01/15 06:53:47;;;;;;;1.70;1.20;;;19.00;42.20;;;;;;222789;1261;22755;-55
2024/01/15 06:58:54;;;;;;;1.10;0.80;;;19.00;42.10;;;;;;223054;1267;22681;-55
2024/01/15 07:03:59;;;;;;;0.60;0.60;;;19.00;42.20;;;;;;222568;1263;22533;-57
2024/01/15 07:09:08;;;;;;;2.90;1.50;;;19.00;42.10;;;;;;222155;1267;22521;-57
2024/01/15 07:14:12;;;;;;;4.00;1.70;;;19.00;42.50;;;;;;222467;1267;24353;-57
2024/01/15 07:19:19;;;;;;;2.80;1.50;;;18.90;42.00;;;;;;222819;1264;23240;-55
2024/01/15 07:24:23;;;;;;;2.10;1.30;;;18.90;42.20;;;;;;222830;1267;24316;-57
2024/01/15 07:29:28;;;;;;;3.40;1.30;;;18.80;42.30;;;;;;222631;1267;25325;-55
2024/01/15 07:34:33;;;;;;;4.20;1.70;;;18.70;42.40;;;;;;222411;1253;24200;-54
2024/01/15 07:39:38;;;;;;;2.30;1.20;;;18.70;42.40;;;;;;222777;1254;24184;-55
2024/01/15 07:44:48;;;;;;;2.50;1.20;;;18.60;42.50;;;;;;222919;1266;24301;-57
2024/01/15 07:49:53;;;;;;;3.30;1.60;;;18.90;42.10;;;;;;222656;1259;25226;-56
2024/01/15 07:55:01;;;;;;;2.00;1.30;;;19.50;41.40;;;;;;222998;1266;22531;-56
2024/01/15 08:00:18;;;;;;;5.00;1.50;;;20.00;40.70;;;;;;222432;1266;24225;-56
2024/01/15 08:05:23;;;;;;;4.90;1.80;;;20.20;40.10;;;;;;222411;1263;25340;-57
2024/01/15 08:10:28;;;;;;;3.20;1.30;;;20.20;40.10;;;;;;222217;1268;24344;-54
2024/01/15 08:15:33;;;;;;;4.10;1.60;;;20.10;40.10;;;;;;222261;1267;22516;-57
2024/01/15 08:20:40;;;;;;;3.20;1.30;;;19.90;39.90;;;;;;222578;1263;22527;-57
2024/01/15 08:25:44;;;;;;;2.30;1.40;;;19.70;41.20;;;;;;222943;1261;22522;-56
2024/01/15 08:30:49;;;;;;;3.00;1.20;;;19.50;41.10;;;;;;222900;1264;24256;-57
2024/01/15 08:35:54;;;;;;;2.80;1.50;;;19.10;41.90;;;;;;222796;1264;23730;-57
2024/01/15 08:41:00;;;;;;;2.50;1.50;;;19.00;42.20;;;;;;223093;1262;23103;-57
2024/01/15 08:46:07;;;;;;;1.00;0.90;;;18.90;42.50;;;;;;222728;1267;24347;-57
2024/01/15 08:51:12;;;;;;;1.10;1.00;;;18.90;42.30;;;;;;222382;1257;24156;-56
2024/01/15 08:56:16;;;;;;;1.20;1.10;;;18.80;42.20;;;;;;222943;1247;22571;-57
2024/01/15 09:01:21;;;;;;;2.30;1.30;;;18.80;42.30;;;;;;222273;1264;25623;-56
2024/01/15 09:06:27;;;;;;;1.40;1.00;;;18.80;42.20;;;;;;222432;1267;25350;-57
2024/01/15 09:11:32;;;;;;;1.10;0.90;;;18.80;42.10;;;;;;222679;1266;22514;-53
2024/01/15 09:16:36;;;;;;;3.10;1.40;;;18.80;41.90;;;;;;222811;1252;25433;-56
2024/01/15 09:21:41;;;;;;;2.30;1.30;;;18.90;42.10;;;;;;222469;1265;24272;-54
2024/01/15 09:26:45;;;;;;;0.80;0.80;;;18.70;42.20;;;;;;222813;1264;22781;-56
2024/01/15 09:31:53;;;;;;;2.80;1.20;;;18.70;42.10;;;;;;223170;1253;24260;-57
2024/01/15 09:36:59;;;;;;;2.60;1.40;;;18.70;42.20;;;;;;222950;1249;22633;-58
2024/01/15 09:42:04;;;;;;;1.10;1.00;;;18.70;42.60;;;;;;223227;1267;22557;-56
2024/01/15 09:47:09;;;;;;;1.80;1.30;;;18.70;42.30;;;;;;222804;1262;25425;-58
2024/01/15 09:52:16;;;;;;;1.10;1.00;;;18.70;42.20;;;;;;222812;1266;24916;-57
2024/01/15 09:57:23;;;;;;;1.40;1.20;;;19.00;41.60;;;;;;222637;1264;25455;-56
2024/01/15 10:02:29;;;;;;;1.70;1.20;;;19.60;40.80;;;;;;222386;1265;24392;-57
2024/01/15 10:07:37;;;;;;;4.20;1.90;;;20.10;40.10;;;;;;222727;1264;25544;-54
2024/01/15 10:12:42;;;;;;;3.00;1.70;;;20.30;39.70;;;;;;222159;1267;22762;-54
2024/01/15 10:17:47;;;;;;;1.60;1.00;;;20.10;39.80;;;;;;222636;1266;22569;-55
2024/01/15 10:22:55;;;;;;;2.10;1.10;;;20.10;40.10;;;;;;222903;1266;22646;-57
2024/01/15 10:28:01;;;;;;;5.20;1.60;;;19.80;40.30;;;;;;222979;1260;24344;-57
2024/01/15 10:33:08;;;;;;;1.80;1.30;;;19.50;40.90;;;;;;222888;1265;23486;-57
2024/01/15 10:38:13;;;;;;;3.40;1.60;;;19.40;41.20;;;;;;222144;1259;24213;-57
2024/01/15 10:43:21;;;;;;;1.60;1.20;;;19.30;41.30;;;;;;222888;1264;24412;-57
2024/01/15 10:48:31;;;;;;;2.30;1.30;;;19.20;41.50;;;;;;222421;1267;22531;-57
2024/01/15 10:53:40;;;;;;;4.70;2.00;;;19.20;41.40;;;;;;222489;1263;24193;-58
2024/01/15 10:58:45;;;;;;;1.50;1.30;;;19.10;41.70;;;;;;222551;1262;22520;-57
2024/01/15 11:03:50;;;;;;;2.50;1.60;;;19.10;42.00;;;;;;222810;1264;22672;-57
2024/01/15 11:08:55;;;;;;;4.00;1.60;;;19.00;41.30;;;;;;222621;1264;22638;-58
2024/01/15 11:14:00;;;;;;;2.50;1.40;;;19.10;41.60;;;;;;222504;1265;22798;-59
2024/01/15 11:19:07;;;;;;;1.40;1.00;;;19.10;41.80;;;;;;222396;1252;22595;-58
2024/01/15 11:24:41;;;;;;;2.20;1.20;;;19.00;42.10;;;;;;222188;1260;26411;-55
2024/01/15 11:29:48;;;;;;;3.10;1.30;;;18.90;42.10;;;;;;222705;1259;23537;-58
2024/01/15 11:34:58;;;;;;;4.50;1.60;;;18.80;42.10;;;;;;222504;1264;25335;-57
2024/01/15 11:40:11;;;;;;;1.40;1.10;;;18.80;42.40;;;;;;222869;1260;24026;-57
2024/01/15 11:45:22;;;;;;;2.20;1.40;;;18.80;42.30;;;;;;222704;1266;22645;-57
2024/01/15 11:50:32;;;;;;;1.40;1.10;;;18.80;42.80;;;;;;222709;1265;24367;-56
2024/01/15 11:55:44;;;;;;;3.20;1.40;;;18.80;42.30;;;;;;221766;1265;22514;-58
2024/01/15 12:00:54;;;;;;;1.20;1.00;;;19.00;42.60;;;;;;221880;1270;22536;-56
2024/01/15 12:05:59;;;;;;;1.40;1.20;;;18.90;42.30;;;;;;221884;1265;22802;-58
2024/01/15 12:11:13;;;;;;;1.30;1.00;;;18.90;42.20;;;;;;222133;1251;22517;-56
2024/01/15 12:16:18;;;;;;;2.50;1.40;;;18.90;42.30;;;;;;222561;1251;25268;-58
2024/01/15 12:21:26;;;;;;;1.10;1.00;;;18.70;42.50;;;;;;222733;1262;23192;-56
2024/01/15 12:26:30;;;;;;;2.40;1.40;;;18.60;42.50;;;;;;222705;1266;22829;-57
2024/01/15 12:31:35;;;;;;;1.40;1.20;;;18.60;43.00;;;;;;222900;1263;22533;-55
2024/01/15 12:36:42;;;;;;;1.80;1.40;;;18.60;42.80;;;;;;222378;1264;25298;-57
2024/01/15 12:41:46;;;;;;;1.40;1.30;;;18.50;42.50;;;;;;222610;1264;22634;-57
2024/01/15 12:46:51;;;;;;;2.50;1.40;;;18.50;42.60;;;;;;222512;1262;25239;-55
2024/01/15 12:52:00;;;;;;;2.10;1.10;;;18.40;42.70;;;;;;222421;1257;22517;-56
2024/01/15 12:57:04;;;;;;;1.70;1.50;;;18.90;42.10;;;;;;222965;1266;23023;-56
2024/01/15 13:02:10;;;;;;;1.30;1.00;;;19.60;41.00;;;;;;222168;1265;24461;-57
2024/01/15 13:07:14;;;;;;;2.40;1.30;;;20.10;40.10;;;;;;222499;1260;22676;-57
2024/01/15 13:12:20;;;;;;;1.60;1.00;;;20.30;39.50;;;;;;222733;1266;24347;-57
2024/01/15 13:17:24;;;;;;;3.40;1.50;;;20.30;39.80;;;;;;222411;1253;22654;-58
2024/01/15 13:22:32;;;;;;;4.60;1.70;;;19.90;40.40;;;;;;222246;1267;24243;-57
2024/01/15 13:27:37;;;;;;;7.10;2.40;;;19.50;41.00;;;;;;222424;1264;22571;-53
2024/01/15 13:32:46;;;;;;;2.00;1.50;;;19.50;41.10;;;;;;222895;1264;22530;-57
2024/01/15 13:37:52;;;;;;;6.70;1.90;;;19.30;41.90;;;;;;222551;1264;24637;-55
2024/01/15 13:42:57;;;;;;;5.10;1.90;;;19.30;41.60;;;;;;223110;1267;22517;-57
2024/01/15 13:48:05;;;;;;;9.10;2.90;;;19.30;41.40;;;;;;222374;1261;22531;-57
2024/01/15 13:53:18;;;;;;;11.90;3.20;;;19.10;41.90;;;;;;222562;1268;23397;-56
2024/01/15 13:58:25;;;;;;;4.00;1.80;;;19.10;41.80;;;;;;222957;1244;24014;-59
2024/01/15 14:03:29;;;;;;;8.10;2.50;;;19.10;41.50;;;;;;222177;1260;25296;-56
2024/01/15 14:08:41;;;;;;;6.50;3.00;;;19.10;41.90;;;;;;221629;1255;24340;-56
2024/01/15 14:13:52;;;;;;;3.80;1.90;;;19.10;41.70;;;;;;221626;1271;22639;-57
2024/01/15 14:18:57;;;;;;;4.50;2.20;;;19.10;42.00;;;;;;221789;1268;22529;-55
2024/01/15 14:24:04;;;;;;;2.30;1.20;;;19.00;42.10;;;;;;221885;1265;24742;-58
2024/01/15 14:29:10;;;;;;;1.30;1.20;;;18.90;41.70;;;;;;221682;1270;22520;-57
2024/01/15 14:34:19;;;;;;;2.30;1.70;;;18.80;42.10;;;;;;222724;1260;22537;-58
2024/01/15 14:39:27;;;;;;;2.20;1.70;;;18.70;41.80;;;;;;222721;1266;22540;-54
2024/01/15 14:44:33;;;;;;;4.40;1.90;;;18.70;42.40;;;;;;223002;1263;24175;-57
2024/01/15 14:49:41;;;;;;;2.50;1.60;;;18.70;42.00;;;;;;222697;1261;22521;-55
2024/01/15 14:54:47;;;;;;;2.90;1.80;;;18.60;42.00;;;;;;222472;1267;22518;-55
2024/01/15 14:59:52;;;;;;;2.10;1.40;;;18.60;42.20;;;;;;222548;1261;22674;-57
2024/01/15 15:04:56;;;;;;;3.80;1.80;;;19.10;41.30;;;;;;222771;1260;25578;-57
2024/01/15 15:10:01;;;;;;;4.50;1.80;;;19.80;40.40;;;;;;222637;1266;25417;-58
2024/01/15 15:15:07;;;;;;;6.60;2.30;;;20.20;39.60;;;;;;222637;1266;22987;-58
2024/01/15 15:20:15;;;;;;;3.40;1.40;;;20.20;39.80;;;;;;222930;1266;22679;-55
2024/01/15 15:25:21;;;;;;;3.10;1.90;;;20.00;39.80;;;;;;222959;1268;22528;-56
2024/01/15 15:30:26;;;;;;;2.80;1.70;;;19.80;40.20;;;;;;222659;1263;23498;-59
2024/01/15 15:35:31;;;;;;;2.00;1.50;;;19.50;40.60;;;;;;222563;1263;23461;-56
2024/01/15 15:40:35;;;;;;;1.80;1.20;;;19.40;40.80;;;;;;222775;1260;27517;-58
2024/01/15 15:45:42;;;;;;;1.60;1.40;;;19.30;41.10;;;;;;222222;1266;22523;-58
2024/01/15 15:50:47;;;;;;;2.60;1.60;;;19.30;41.50;;;;;;222677;1260;22828;-57
2024/01/15 15:55:52;;;;;;;4.10;1.70;;;19.10;40.80;;;;;;222156;1265;25718;-56
2024/01/15 16:00:56;;;;;;;1.30;1.20;;;19.00;41.50;;;;;;223026;1254;22523;-57
2024/01/15 16:06:01;;;;;;;1.60;1.30;;;19.00;40.90;;;;;;222640;1263;22534;-56
2024/01/15 16:11:07;;;;;;;2.80;1.70;;;18.90;41.40;;;;;;222617;1267;24251;-57
2024/01/15 16:16:11;;;;;;;2.70;1.30;;;19.00;41.50;;;;;;222787;1259;25322;-57
2024/01/15 16:21:35;;;;;;;2.10;1.50;;;19.00;41.50;;;;;;222559;1268;22520;-57
2024/01/15 16:27:02;;;;;;;7.20;2.60;;;19.00;41.30;;;;;;222845;1266;24228;-57
2024/01/15 16:32:16;;;;;;;2.20;1.40;;;18.90;41.50;;;;;;222866;1267;24370;-58
2024/01/15 16:37:21;;;;;;;5.30;2.60;;;18.90;41.40;;;;;;222870;1267;22533;-56
2024/01/15 16:42:26;;;;;;;2.70;1.60;;;18.80;41.60;;;;;;222722;1265;24264;-58
2024/01/15 16:47:31;;;;;;;3.70;2.10;;;18.70;41.70;;;;;;222575;1265;26525;-56
2024/01/15 16:52:36;;;;;;;6.70;2.50;;;18.70;41.80;;;;;;222973;1263;24378;-58
2024/01/15 16:57:41;;;;;;;4.90;2.40;;;18.70;41.70;;;;;;222357;1267;22517;-57
2024/01/15 17:02:46;;;;;;;1.50;1.40;;;18.70;41.70;;;;;;223111;1265;24201;-58
2024/01/15 17:07:51;;;;;;;2.50;1.80;;;19.30;41.10;;;;;;222280;1266;22529;-56
2024/01/15 17:12:56;;;;;;;3.30;1.70;;;19.80;40.00;;;;;;222974;1265;25471;-58
2024/01/15 17:18:00;;;;;;;1.40;1.20;;;20.20;39.50;;;;;;222668;1265;22530;-58
2024/01/15 17:23:08;;;;;;;1.60;1.50;;;20.30;39.30;;;;;;222565;1267;24334;-58
2024/01/15 17:28:13;;;;;;;2.70;1.90;;;20.20;39.60;;;;;;222874;1263;25333;-56
2024/01/15 17:33:17;;;;;;;1.90;1.60;;;19.80;40.10;;;;;;222618;1267;24020;-57
2024/01/15 17:38:29;;;;;;;2.40;1.60;;;19.70;40.40;;;;;;222473;1263;25067;-57
2024/01/15 17:43:37;;;;;;;4.00;2.00;;;19.60;40.50;;;;;;222068;1266;209240;-55
2024/01/15 17:48:48;;;;;;;2.50;1.70;;;19.30;40.90;;;;;;222171;1266;24181;-56
2024/01/15 17:53:52;;;;;;;1.40;1.30;;;19.20;41.10;;;;;;222400;1266;26374;-56
2024/01/15 17:58:57;;;;;;;1.50;1.30;;;19.10;41.40;;;;;;222757;1261;23880;-54
2024/01/15 18:04:03;;;;;;;1.50;1.40;;;19.00;41.40;;;;;;222607;1266;22541;-57
2024/01/15 18:09:08;;;;;;;1.80;1.40;;;18.90;42.30;;;;;;222982;1265;22642;-58
2024/01/15 18:14:15;;;;;;;2.40;1.60;;;19.00;41.50;;;;;;222660;1267;22604;-57
2024/01/15 18:19:20;;;;;;;2.10;1.50;;;19.00;41.50;;;;;;222353;1252;24213;-57
2024/01/15 18:24:25;;;;;;;2.60;2.00;;;18.90;41.60;;;;;;222270;1266;23904;-54
2024/01/15 18:29:32;;;;;;;1.90;1.50;;;18.90;41.50;;;;;;222836;1265;24210;-58
2024/01/15 18:34:37;;;;;;;2.10;1.80;;;18.80;41.60;;;;;;222729;1266;25481;-56
2024/01/15 18:39:45;;;;;;;3.10;1.80;;;18.80;41.60;;;;;;222859;1267;22629;-58
2024/01/15 18:44:50;;;;;;;2.70;1.90;;;18.80;41.60;;;;;;222413;1268;24240;-57
2024/01/15 18:49:55;;;;;;;2.00;1.80;;;18.80;41.70;;;;;;222516;1267;25287;-56
2024/01/15 18:55:02;;;;;;;2.70;1.50;;;18.80;41.60;;;;;;222518;1267;25499;-55
2024/01/15 19:00:10;;;;;;;2.50;1.70;;;18.70;41.60;;;;;;222668;1262;22597;-58
2024/01/15 19:05:22;;;;;;;2.90;1.80;;;18.70;42.10;;;;;;223122;1261;23141;-55
2024/01/15 19:10:33;;;;;;;2.40;1.90;;;18.60;41.70;;;;;;222707;1266;25229;-57
2024/01/15 19:15:45;;;;;;;4.40;1.90;;;18.60;41.70;;;;;;222742;1267;22871;-58
2024/01/15 19:20:49;;;;;;;2.50;1.40;;;19.10;41.00;;;;;;222309;1267;25211;-58
2024/01/15 19:26:02;;;;;;;3.30;2.00;;;19.80;40.20;;;;;;222616;1266;22538;-57
2024/01/15 19:31:07;;;;;;;1.30;1.20;;;20.10;39.90;;;;;;222896;1260;22553;-55
2024/01/15 19:36:23;;;;;;;1.80;1.70;;;20.20;39.30;;;;;;222732;1266;26531;-57
2024/01/15 19:41:27;;;;;;;;;;;20.10;39.50;;;;;;222608;1263;22631;-56
2024/01/15 19:46:33;;;;;;;2.40;1.60;;;19.90;39.80;;;;;;222387;1266;24199;-58
2024/01/15 19:51:39;;;;;;;1.30;1.20;;;19.70;39.90;;;;;;222414;1266;24220;-57
2024/01/15 19:56:44;;;;;;;4.10;1.80;;;19.50;40.40;;;;;;222316;1267;25386;-58
2024/01/15 20:01:48;;;;;;;1.50;1.40;;;19.20;41.10;;;;;;222727;1268;22609;-56
2024/01/15 20:06:56;;;;;;;1.70;1.50;;;19.10;41.30;;;;;;222385;1267;22589;-57
2024/01/15 20:12:02;;;;;;;3.20;1.90;;;19.00;41.80;;;;;;222635;1259;24215;-57
2024/01/15 20:17:12;;;;;;;2.00;1.60;;;18.90;41.40;;;;;;222956;1268;25375;-57
2024/01/15 20:22:17;;;;;;;2.10;1.70;;;18.90;41.80;;;;;;223119;1267;22528;-57
2024/01/15 20:27:23;;;;;;;3.10;1.60;;;18.90;41.10;;;;;;221606;1260;26211;-58
2024/01/15 20:32:36;;;;;;;2.00;1.30;;;18.80;41.50;;;;;;221751;1248;22482;-55
2024/01/15 20:37:54;;;;;;;;;;;;;;;;;;;;;
2024/01/15 20:43:06;;;;;;;2.00;1.50;;;18.80;41.60;;;;;;222267;1269;22533;-56
2024/01/15 20:48:10;;;;;;;2.00;1.70;;;18.80;42.00;;;;;;222178;1270;22523;-58
2024/01/15 20:53:16;;;;;;;2.30;1.50;;;18.70;42.00;;;;;;222480;1268;25628;-57
2024/01/15 20:58:22;;;;;;;4.20;2.20;;;18.70;41.80;;;;;;222339;1268;24202;-59
2024/01/15 21:03:27;;;;;;;2.50;1.70;;;18.60;41.70;;;;;;221720;1266;22525;-55
2024/01/15 21:08:34;;;;;;;5.20;2.00;;;18.60;42.20;;;;;;221450;1266;22751;-55
2024/01/15 21:13:59;;;;;;;3.60;1.90;;;18.70;41.70;;;;;;220640;1275;22697;-52
2024/01/15 21:19:04;;;;;;;2.30;1.60;;;19.40;40.70;;;;;;220651;1272;22530;-56
2024/01/15 21:24:08;;;;;;;2.70;1.60;;;19.80;39.90;;;;;;221514;1269;25616;-58
2024/01/15 21:29:14;;;;;;;1.50;1.30;;;20.20;39.20;;;;;;221395;1259;22521;-58
2024/01/15 21:34:20;;;;;;;2.50;1.70;;;20.40;39.00;;;;;;221450;1272;25322;-55
2024/01/15 21:39:26;;;;;;;3.30;2.00;;;20.50;39.20;;;;;;221546;1251;22536;-57
2024/01/15 21:44:30;;;;;;;2.40;1.40;;;20.40;39.20;;;;;;222039;1268;22518;-56
2024/01/15 21:49:37;;;;;;;3.60;1.60;;;20.10;39.70;;;;;;222639;1268;24280;-55
2024/01/15 21:54:41;;;;;;;2.20;1.70;;;19.90;40.10;;;;;;222274;1244;22579;-57
2024/01/15 21:59:47;;;;;;;2.70;1.40;;;19.50;40.50;;;;;;222499;1265;22516;-58
2024/01/15 22:04:52;;;;;;;3.10;1.70;;;19.40;41.30;;;;;;222467;1268;22530;-56
2024/01/15 22:09:56;;;;;;;2.30;1.40;;;19.20;41.70;;;;;;222272;1260;22525;-56
2024/01/15 22:15:01;;;;;;;2.30;1.70;;;19.10;41.70;;;;;;222391;1268;22764;-58
2024/01/15 22:20:10;;;;;;;2.50;1.60;;;19.10;41.30;;;;;;222760;1268;23939;-58
2024/01/15 22:25:14;;;;;;;2.60;1.40;;;19.10;41.50;;;;;;222621;1266;22808;-57
2024/01/15 22:30:19;;;;;;;1.70;1.60;;;19.00;41.50;;;;;;222562;1260;24195;-56
2024/01/15 22:35:24;;;;;;;2.50;1.70;;;19.00;41.60;;;;;;223292;1257;22538;-57
2024/01/15 22:40:29;;;;;;;2.00;1.60;;;18.90;41.90;;;;;;223101;1264;22531;-55
2024/01/15 22:45:34;;;;;;;2.00;1.60;;;18.90;41.70;;;;;;222906;1264;25305;-57
2024/01/15 22:50:39;;;;;;;2.80;1.80;;;18.90;42.20;;;;;;222700;1260;25499;-56
2024/01/15 22:55:43;;;;;;;1.90;1.30;;;19.10;41.50;;;;;;222379;1261;24231;-56
2024/01/15 23:00:48;;;;;;;1.90;1.50;;;19.70;40.40;;;;;;222730;1261;25261;-53
2024/01/15 23:05:53;;;;;;;2.30;1.50;;;20.20;39.50;;;;;;222943;1266;24270;-56
2024/01/15 23:10:58;;;;;;;2.40;1.40;;;20.50;39.10;;;;;;222673;1266;24194;-57
2024/01/15 23:16:02;;;;;;;2.20;1.50;;;20.60;39.00;;;;;;222321;1267;22514;-58
2024/01/15 23:21:07;;;;;;;1.40;1.20;;;20.50;39.20;;;;;;223052;1264;23085;-59
2024/01/15 23:26:12;;;;;;;2.40;1.40;;;20.30;39.60;;;;;;222637;1261;25226;-56
2024/01/15 23:31:17;;;;;;;1.50;1.30;;;20.10;40.10;;;;;;222546;1267;24225;-58
2024/01/15 23:36:21;;;;;;;3.30;1.70;;;19.80;40.50;;;;;;222479;1266;22528;-57
2024/01/15 23:41:25;;;;;;;3.00;1.70;;;19.60;40.40;;;;;;222654;1261;24169;-58
2024/01/15 23:46:31;;;;;;;2.30;1.40;;;19.50;40.90;;;;;;222469;1268;22892;-58
2024/01/15 23:51:35;;;;;;;3.20;1.60;;;19.50;40.90;;;;;;222624;1264;24205;-57
2024/01/15 23:56:40;;;;;;;1.90;1.50;;;19.60;40.90;;;;;;222275;1262;25432;-56
